NZUN weather

Pauanui Beach Glider Airport
Waikato Region, New Zealand

Public forecast

Using degrees Celsius for public forecast. Weather courtesy of forecast.io.

METAR (pilot weather report)

Closest report is Auckland International Airport, 51.4 nm (95.2 km) W. Retrieved 2019/09/22 10:30 UTC (24 minutes ago):

NZAA 221030Z AUTO 22011KT 9999 BKN034/// 13/06 Q1029 NOSIG

TAF (pilot weather forecast)

Closest forecast is Auckland International Airport, 51.4 nm (95.2 km) W. Retrieved 2019/09/22 06:15 UTC (5 hours ago):

TAF NZAA 220500Z 2206/2306 22015KT 9999 SCT025 FM221000 26005KT 9999 BKN020 FM222200 27015KT 9999 SCT020